Hydro-Met Data Report Part 5
Issued by NWS West Gulf RFC

Home |  Current Version |  Previous Version |  Text Only |  Print | Product List |  Glossary On
Versions: 1 2 3 4 5 6 7 8 9 10 11 12 13 14 15 16 17 18 19 20 21 22 23 24 25
671
SRUS54 KFWR 061646
RR5FWR
:     Hourly Reservoir Discharges
:     Data - USACE
.ER SCLT2 20260906 Z DH1000 /DUE /QTIRZZZ /DIH+01 /0.0053 /0.0053 /0.0053 /0.0053 /0.0053 /0.0053
.ER TXKT2 20260906 Z DH1000 /DUE /QTIRZZZ /DIH+01 /0.097 /0.097 /0.097 /0.097 /0.097 /0.097
.ER JFNT2 20260906 Z DH1000 /DUE /QTIRZZZ /DIH+01 /0.02 /0.02 /0.02 /0.02 /0.02 /0.02
.ER JSPT2 20260906 Z DH1000 /DUE /QTIRZZZ /DIH+01 /0.0 /0.0 /0.0 /0.0 /0.0 /0.0
.ER TBLT2 20260906 Z DH1000 /DUE /QTIRZZZ /DIH+01 /2.1 /2.1 /2.1 /2.1 /2.1 /2.1
.ER BNBT2 20260906 Z DH1000 /DUE /QTIRZZZ /DIH+01 /0.0383 /0.0383 /0.0383 /0.0383 /0.0383 /0.0383
.ER JPLT2 20260906 Z DH1000 /DUE /QTIRZZZ /DIH+01 /0.016 /0.016 /0.016 /0.016 /0.016 /0.016 /0.016
.ER RRLT2 20260906 Z DH1000 /DUE /QTIRZZZ /DIH+01 /0.0253 /0.0253 /0.0253 /0.0253 /0.0253 /0.0253
.ER LEWT2 20260906 Z DH1000 /DUE /QTIRZZZ /DIH+01 /0.2844 /0.2844 /0.2844 /0.2844 /0.2844 /0.2843
.ER GPVT2 20260906 Z DH1000 /DUE /QTIRZZZ /DIH+01 /0.0623 /0.0623 /0.0623 /0.0623 /0.0623 /0.0623
.ER LVNT2 20260906 Z DH1000 /DUE /QTIRZZZ /DIH+01 /0.001 /0.001 /0.001 /0.001 /0.001 /0.001 /0.001
.ER DAWT2 20260906 Z DH1000 /DUE /QTIRZZZ /DIH+01 /0.0 /0.0 /0.0 /0.0 /0.0 /0.0
.ER BDWT2 20260906 Z DH1000 /DUE /QTIRZZZ /DIH+01 /0.0 /0.0 /0.0 /0.0 /0.0 /0.0
.ER WTYT2 20260906 Z DH1000 /DUE /QTIRZZZ /DIH+01 /0.05 /0.05 /0.05 /0.05 /0.05 /0.05
.ER ALAT2 20260906 Z DH1000 /DUE /QTIRZZZ /DIH+01 /0.0052 /0.0052 /0.0052 /0.0052 /0.0052 /0.0052
.ER ACTT2 20260906 Z DH1000 /DUE /QTIRZZZ /DIH+01 /0.01 /0.01 /0.01 /0.01 /0.01 /0.01
.ER PCTT2 20260906 Z DH1000 /DUE /QTIRZZZ /DIH+01 /0.0275 /0.0275 /0.0275 /0.0275 /0.0275 /0.0275
.ER BLNT2 20260906 Z DH1000 /DUE /QTIRZZZ /DIH+01 /0.0515 /0.0515 /0.0515 /0.0515 /0.0515 /0.0515
.ER STIT2 20260906 Z DH1000 /DUE /QTIRZZZ /DIH+01 /0.001 /0.001 /0.001 /0.001 /0.001 /0.001 /0.001
.ER GGLT2 20260906 Z DH1000 /DUE /QTIRZZZ /DIH+01 /0.0 /0.0 /0.0 /0.0 /0.0 /0.0 /0.0
.ER GNGT2 20260906 Z DH1000 /DUE /QTIRZZZ /DIH+01 /0.0044 /0.0044 /0.0044 /0.0044 /0.0044 /0.0044 /0.0044
.ER SOMT2 20260906 Z DH1000 /DUE /QTIRZZZ /DIH+01 /0.001 /0.001 /0.001 /0.001 /0.001 /0.001 /0.001
.ER SAGT2 20260906 Z DH1000 /DUE /QTIRZZZ /DIH+01 /0.001 /0.001 /0.001 /0.001 /0.001 /0.001 /0.001
.ER HORT2 20260906 Z DH1000 /DUE /QTIRZZZ /DIH+01 /0.0 /0.0 /0.0 /0.0 /0.0 /0.0
.ER SMCT2 20260906 Z DH1000 /DUE /QTIRZZZ /DIH+01 /0.151 /0.151 /0.151 /0.151 /0.151 /0.151
.ER ADDT2 20260906 Z DH1000 /DUE /QTIRZZZ /DIH+01 /0.232 /0.221 /0.219 /0.213 /0.208 /0.203
.ER BAKT2 20260906 Z DH1000 /DUE /QTIRZZZ /DIH+01 /0.129 /0.13 /0.133 /0.134 /0.135 /0.131
.ER TBRT2 20260906 Z DH1000 /DUE /QTIRZZZ /DIH+01 /0.05 /0.05 /0.05 /0.05 /0.05 /0.05 /0.05
.ER BSLT2 20260906 Z DH1000 /DUE /QTIRZZZ /DIH+01 /0.005 /0.005 /0.005 /0.005 /0.005 /0.005 /0.005
.ER CLDL1 20260906 Z DH1000 /DUE /QTIRZZZ /DIH+01 /0.0 /0.0 /0.0 /0.0 /0.0 /0.0 /0.0
$$